sensor_id;sensor_type;location;lat;lon;timestamp;pressure;altitude;pressure_sealevel;temperature;humidity
62703;BME280;66022;50.448;18.122;2023-04-07T00:01:56;99297.10;;;2.90;84.49
62703;BME280;66022;50.448;18.122;2023-04-07T00:06:10;99292.44;;;2.81;90.33
62703;BME280;66022;50.448;18.122;2023-04-07T00:10:25;99288.70;;;2.78;84.72
62703;BME280;66022;50.448;18.122;2023-04-07T00:14:39;99285.33;;;2.76;84.13
62703;BME280;66022;50.448;18.122;2023-04-07T00:18:52;99282.98;;;2.72;85.49
62703;BME280;66022;50.448;18.122;2023-04-07T00:23:06;99279.64;;;2.70;84.90
62703;BME280;66022;50.448;18.122;2023-04-07T00:27:20;99276.79;;;2.66;88.16
62703;BME280;66022;50.448;18.122;2023-04-07T00:31:34;99273.63;;;2.63;85.70
62703;BME280;66022;50.448;18.122;2023-04-07T00:35:48;99270.76;;;2.60;88.45
62703;BME280;66022;50.448;18.122;2023-04-07T00:40:03;99268.19;;;2.59;86.22
62703;BME280;66022;50.448;18.122;2023-04-07T00:44:17;99264.94;;;2.57;85.40
62703;BME280;66022;50.448;18.122;2023-04-07T00:48:31;99261.92;;;2.54;87.29
62703;BME280;66022;50.448;18.122;2023-04-07T00:52:45;99258.08;;;2.53;86.06
62703;BME280;66022;50.448;18.122;2023-04-07T00:56:59;99253.41;;;2.51;91.36
62703;BME280;66022;50.448;18.122;2023-04-07T01:01:21;99248.63;;;2.52;86.60
62703;BME280;66022;50.448;18.122;2023-04-07T01:05:32;99244.81;;;2.52;86.39
62703;BME280;66022;50.448;18.122;2023-04-07T01:09:42;99240.34;;;2.52;87.13
62703;BME280;66022;50.448;18.122;2023-04-07T01:13:54;99235.44;;;2.52;86.31
62703;BME280;66022;50.448;18.122;2023-04-07T01:18:12;99230.19;;;2.51;88.32
62703;BME280;66022;50.448;18.122;2023-04-07T01:22:25;99226.37;;;2.51;86.44
62703;BME280;66022;50.448;18.122;2023-04-07T01:26:36;99223.41;;;2.50;92.96
62703;BME280;66022;50.448;18.122;2023-04-07T01:30:51;99220.99;;;2.50;87.11
62703;BME280;66022;50.448;18.122;2023-04-07T01:35:05;99219.08;;;2.51;87.05
62703;BME280;66022;50.448;18.122;2023-04-07T01:39:19;99216.52;;;2.50;88.09
62703;BME280;66022;50.448;18.122;2023-04-07T01:43:32;99214.69;;;2.51;87.18
62703;BME280;66022;50.448;18.122;2023-04-07T01:47:46;99212.45;;;2.51;89.97
62703;BME280;66022;50.448;18.122;2023-04-07T01:52:01;99210.64;;;2.52;87.34
62703;BME280;66022;50.448;18.122;2023-04-07T01:56:15;99208.20;;;2.49;94.05
62703;BME280;66022;50.448;18.122;2023-04-07T02:00:31;99204.99;;;2.51;87.71
62703;BME280;66022;50.448;18.122;2023-04-07T02:08:58;99198.63;;;2.52;88.88
62703;BME280;66022;50.448;18.122;2023-04-07T02:13:12;99197.31;;;2.53;88.28
62703;BME280;66022;50.448;18.122;2023-04-07T02:17:25;99195.40;;;2.54;91.47
62703;BME280;66022;50.448;18.122;2023-04-07T02:21:39;99193.77;;;2.55;88.41
62703;BME280;66022;50.448;18.122;2023-04-07T02:25:54;99192.75;;;2.54;92.65
62703;BME280;66022;50.448;18.122;2023-04-07T02:30:07;99192.77;;;2.56;89.01
62703;BME280;66022;50.448;18.122;2023-04-07T02:34:21;99192.11;;;2.58;88.71
62703;BME280;66022;50.448;18.122;2023-04-07T02:38:35;99190.01;;;2.57;90.79
62703;BME280;66022;50.448;18.122;2023-04-07T02:42:49;99188.12;;;2.59;88.81
62703;BME280;66022;50.448;18.122;2023-04-07T02:47:03;99186.55;;;2.59;93.86
62703;BME280;66022;50.448;18.122;2023-04-07T02:51:17;99183.75;;;2.61;89.46
62703;BME280;66022;50.448;18.122;2023-04-07T02:55:31;99182.28;;;2.62;89.25
62703;BME280;66022;50.448;18.122;2023-04-07T02:59:45;99181.14;;;2.63;90.70
62703;BME280;66022;50.448;18.122;2023-04-07T03:03:59;99180.38;;;2.64;89.58
62703;BME280;66022;50.448;18.122;2023-04-07T03:08:13;99179.38;;;2.62;91.28
62703;BME280;66022;50.448;18.122;2023-04-07T03:12:27;99178.80;;;2.64;89.53
62703;BME280;66022;50.448;18.122;2023-04-07T03:16:41;99180.14;;;2.64;95.68
62703;BME280;66022;50.448;18.122;2023-04-07T03:20:55;99182.31;;;2.66;90.56
62703;BME280;66022;50.448;18.122;2023-04-07T03:25:09;99184.56;;;2.67;89.71
62703;BME280;66022;50.448;18.122;2023-04-07T03:29:22;99185.57;;;2.68;91.24
62703;BME280;66022;50.448;18.122;2023-04-07T03:33:37;99186.41;;;2.69;90.72
62703;BME280;66022;50.448;18.122;2023-04-07T03:37:51;99186.16;;;2.70;93.25
62703;BME280;66022;50.448;18.122;2023-04-07T03:42:05;99183.17;;;2.72;91.09
62703;BME280;66022;50.448;18.122;2023-04-07T03:46:19;99180.17;;;2.70;96.95
62703;BME280;66022;50.448;18.122;2023-04-07T03:50:33;99177.78;;;2.72;91.41
62703;BME280;66022;50.448;18.122;2023-04-07T03:54:47;99175.57;;;2.72;90.00
62703;BME280;66022;50.448;18.122;2023-04-07T03:59:01;99173.17;;;2.72;91.81
62703;BME280;66022;50.448;18.122;2023-04-07T04:03:15;99170.50;;;2.73;90.95
62703;BME280;66022;50.448;18.122;2023-04-07T04:07:29;99169.02;;;2.73;93.26
62703;BME280;66022;50.448;18.122;2023-04-07T04:11:43;99168.03;;;2.75;91.04
62703;BME280;66022;50.448;18.122;2023-04-07T04:15:57;99167.80;;;2.74;95.29
62703;BME280;66022;50.448;18.122;2023-04-07T04:20:11;99166.56;;;2.76;90.91
62703;BME280;66022;50.448;18.122;2023-04-07T04:24:25;99166.13;;;2.78;90.56
62703;BME280;66022;50.448;18.122;2023-04-07T04:28:39;99167.13;;;2.78;91.84
62703;BME280;66022;50.448;18.122;2023-04-07T04:32:53;99170.37;;;2.79;90.65
62703;BME280;66022;50.448;18.122;2023-04-07T04:37:07;99172.80;;;2.78;93.04
62703;BME280;66022;50.448;18.122;2023-04-07T04:41:21;99175.94;;;2.79;90.65
62703;BME280;66022;50.448;18.122;2023-04-07T04:45:35;99178.74;;;2.78;90.06
62703;BME280;66022;50.448;18.122;2023-04-07T04:49:49;99180.74;;;2.77;90.70
62703;BME280;66022;50.448;18.122;2023-04-07T04:54:03;99182.30;;;2.75;90.53
62703;BME280;66022;50.448;18.122;2023-04-07T04:58:17;99183.84;;;2.72;91.75
62703;BME280;66022;50.448;18.122;2023-04-07T05:02:31;99185.01;;;2.71;90.18
62703;BME280;66022;50.448;18.122;2023-04-07T05:06:45;99185.91;;;2.69;94.26
62703;BME280;66022;50.448;18.122;2023-04-07T05:10:59;99186.47;;;2.68;91.23
62703;BME280;66022;50.448;18.122;2023-04-07T05:15:13;99186.72;;;2.67;91.04
62703;BME280;66022;50.448;18.122;2023-04-07T05:19:27;99186.21;;;2.65;91.32
62703;BME280;66022;50.448;18.122;2023-04-07T05:23:41;99186.71;;;2.65;91.25
62703;BME280;66022;50.448;18.122;2023-04-07T05:27:55;99185.61;;;2.63;93.74
62703;BME280;66022;50.448;18.122;2023-04-07T05:32:09;99185.36;;;2.65;91.63
62703;BME280;66022;50.448;18.122;2023-04-07T05:36:23;99185.94;;;2.63;97.85
62703;BME280;66022;50.448;18.122;2023-04-07T05:40:37;99186.45;;;2.66;92.12
62703;BME280;66022;50.448;18.122;2023-04-07T05:44:51;99186.47;;;2.68;91.97
62703;BME280;66022;50.448;18.122;2023-04-07T05:49:05;99187.48;;;2.70;93.16
62703;BME280;66022;50.448;18.122;2023-04-07T05:53:19;99188.76;;;2.72;91.86
62703;BME280;66022;50.448;18.122;2023-04-07T05:57:33;99189.42;;;2.73;93.97
62703;BME280;66022;50.448;18.122;2023-04-07T06:01:47;99189.37;;;2.76;91.83
62703;BME280;66022;50.448;18.122;2023-04-07T06:06:01;99188.84;;;2.76;96.34
62703;BME280;66022;50.448;18.122;2023-04-07T06:10:15;99188.06;;;2.79;92.04
62703;BME280;66022;50.448;18.122;2023-04-07T06:14:29;99188.40;;;2.81;91.71
62703;BME280;66022;50.448;18.122;2023-04-07T06:18:43;99186.35;;;2.82;92.72
62703;BME280;66022;50.448;18.122;2023-04-07T06:22:57;99184.61;;;2.85;91.78
62703;BME280;66022;50.448;18.122;2023-04-07T06:27:11;99181.52;;;2.92;95.27
62703;BME280;66022;50.448;18.122;2023-04-07T06:31:25;99178.80;;;3.06;90.70
62703;BME280;66022;50.448;18.122;2023-04-07T06:35:39;99175.41;;;3.22;89.81
62703;BME280;66022;50.448;18.122;2023-04-07T06:39:53;99172.33;;;3.35;90.18
62703;BME280;66022;50.448;18.122;2023-04-07T06:44:07;99171.21;;;3.44;90.03
62703;BME280;66022;50.448;18.122;2023-04-07T06:48:21;99172.13;;;3.47;90.84
62703;BME280;66022;50.448;18.122;2023-04-07T06:52:35;99173.50;;;3.51;89.87
62703;BME280;66022;50.448;18.122;2023-04-07T06:56:49;99174.24;;;3.52;94.62
62703;BME280;66022;50.448;18.122;2023-04-07T07:01:03;99174.91;;;3.54;90.73
62703;BME280;66022;50.448;18.122;2023-04-07T07:05:17;99175.66;;;3.54;90.76
62703;BME280;66022;50.448;18.122;2023-04-07T07:09:31;99177.23;;;3.54;91.41
62703;BME280;66022;50.448;18.122;2023-04-07T07:13:45;99178.14;;;3.54;91.02
62703;BME280;66022;50.448;18.122;2023-04-07T07:17:59;99180.45;;;3.52;92.47
62703;BME280;66022;50.448;18.122;2023-04-07T07:22:13;99183.11;;;3.53;91.14
62703;BME280;66022;50.448;18.122;2023-04-07T07:26:27;99185.43;;;3.51;96.73
62703;BME280;66022;50.448;18.122;2023-04-07T07:30:41;99187.27;;;3.52;91.29
62703;BME280;66022;50.448;18.122;2023-04-07T07:34:55;99188.26;;;3.52;90.98
62703;BME280;66022;50.448;18.122;2023-04-07T07:39:09;99190.43;;;3.52;91.81
62703;BME280;66022;50.448;18.122;2023-04-07T07:43:23;99193.27;;;3.54;90.84
62703;BME280;66022;50.448;18.122;2023-04-07T07:47:37;99195.76;;;3.54;93.23
62703;BME280;66022;50.448;18.122;2023-04-07T07:51:51;99198.50;;;3.56;91.61
62703;BME280;66022;50.448;18.122;2023-04-07T07:56:05;99200.67;;;3.55;96.21
62703;BME280;66022;50.448;18.122;2023-04-07T08:00:19;99201.25;;;3.58;90.90
62703;BME280;66022;50.448;18.122;2023-04-07T08:04:33;99202.10;;;3.62;90.91
62703;BME280;66022;50.448;18.122;2023-04-07T08:08:47;99201.95;;;3.66;92.17
62703;BME280;66022;50.448;18.122;2023-04-07T08:13:01;99201.56;;;3.71;91.01
62703;BME280;66022;50.448;18.122;2023-04-07T08:17:15;99201.68;;;3.75;94.80
62703;BME280;66022;50.448;18.122;2023-04-07T08:21:29;99201.79;;;3.81;91.16
62703;BME280;66022;50.448;18.122;2023-04-07T08:25:43;99201.20;;;3.85;91.69
62703;BME280;66022;50.448;18.122;2023-04-07T08:29:58;99200.55;;;3.88;91.72
62703;BME280;66022;50.448;18.122;2023-04-07T08:34:11;99201.09;;;3.92;91.04
62703;BME280;66022;50.448;18.122;2023-04-07T08:38:25;99200.42;;;3.93;91.89
62703;BME280;66022;50.448;18.122;2023-04-07T08:42:39;99199.92;;;3.97;90.69
62703;BME280;66022;50.448;18.122;2023-04-07T08:46:53;99200.36;;;4.00;94.16
62703;BME280;66022;50.448;18.122;2023-04-07T08:51:07;99200.62;;;4.06;90.80
62703;BME280;66022;50.448;18.122;2023-04-07T08:55:21;99201.47;;;4.10;90.15
62703;BME280;66022;50.448;18.122;2023-04-07T08:59:35;99203.14;;;4.15;90.86
62703;BME280;66022;50.448;18.122;2023-04-07T09:03:49;99205.08;;;4.21;90.82
62703;BME280;66022;50.448;18.122;2023-04-07T09:08:03;99206.98;;;4.23;90.69
62703;BME280;66022;50.448;18.122;2023-04-07T09:12:17;99208.74;;;4.29;90.59
62703;BME280;66022;50.448;18.122;2023-04-07T09:16:31;99210.85;;;4.32;93.26
62703;BME280;66022;50.448;18.122;2023-04-07T09:29:17;99209.20;;;4.45;90.16
62703;BME280;66022;50.448;18.122;2023-04-07T09:33:27;99206.53;;;4.50;90.19
62703;BME280;66022;50.448;18.122;2023-04-07T09:37:41;99205.22;;;4.52;92.09
62703;BME280;66022;50.448;18.122;2023-04-07T09:41:56;99202.79;;;4.56;90.05
62703;BME280;66022;50.448;18.122;2023-04-07T09:46:12;99198.90;;;4.54;94.44
62703;BME280;66022;50.448;18.122;2023-04-07T09:54:38;99189.84;;;4.60;90.17
62703;BME280;66022;50.448;18.122;2023-04-07T09:58:51;99188.25;;;4.60;91.39
62703;BME280;66022;50.448;18.122;2023-04-07T10:03:05;99189.48;;;4.61;90.14
62703;BME280;66022;50.448;18.122;2023-04-07T10:07:19;99188.48;;;4.61;93.23
62703;BME280;66022;50.448;18.122;2023-04-07T10:11:33;99186.56;;;4.62;90.45
62703;BME280;66022;50.448;18.122;2023-04-07T10:15:47;99184.25;;;4.61;92.08
62703;BME280;66022;50.448;18.122;2023-04-07T10:20:01;99183.82;;;4.61;90.84
62703;BME280;66022;50.448;18.122;2023-04-07T10:28:29;99186.60;;;4.60;91.50
62703;BME280;66022;50.448;18.122;2023-04-07T10:49:39;99181.01;;;4.62;91.36
62703;BME280;66022;50.448;18.122;2023-04-07T11:06:37;99175.42;;;4.67;95.26
62703;BME280;66022;50.448;18.122;2023-04-07T11:10:49;99174.67;;;4.71;90.60
62703;BME280;66022;50.448;18.122;2023-04-07T11:19:17;99174.10;;;4.77;91.46
62703;BME280;66022;50.448;18.122;2023-04-07T11:27:45;99173.67;;;4.87;91.99
62703;BME280;66022;50.448;18.122;2023-04-07T11:32:00;99172.60;;;4.92;90.59
62703;BME280;66022;50.448;18.122;2023-04-07T11:36:13;99171.92;;;4.92;94.26
62703;BME280;66022;50.448;18.122;2023-04-07T11:40:33;99169.34;;;4.96;90.55
62703;BME280;66022;50.448;18.122;2023-04-07T11:44:44;99168.02;;;4.99;90.76
62703;BME280;66022;50.448;18.122;2023-04-07T11:49:06;99168.91;;;5.01;91.00
62703;BME280;66022;50.448;18.122;2023-04-07T11:53:09;99169.49;;;5.02;90.56
62703;BME280;66022;50.448;18.122;2023-04-07T11:57:26;99169.67;;;5.02;93.10
62703;BME280;66022;50.448;18.122;2023-04-07T12:01:40;99168.32;;;5.03;90.67
62703;BME280;66022;50.448;18.122;2023-04-07T12:05:54;99167.10;;;5.02;93.28
62703;BME280;66022;50.448;18.122;2023-04-07T12:14:19;99166.50;;;5.02;90.94
62703;BME280;66022;50.448;18.122;2023-04-07T12:18:33;99164.75;;;5.01;92.00
62703;BME280;66022;50.448;18.122;2023-04-07T12:22:47;99161.58;;;5.03;90.96
62703;BME280;66022;50.448;18.122;2023-04-07T12:27:01;99159.50;;;5.04;93.68
62703;BME280;66022;50.448;18.122;2023-04-07T12:31:15;99158.76;;;5.07;90.48
62703;BME280;66022;50.448;18.122;2023-04-07T12:35:29;99157.83;;;5.08;90.82
62703;BME280;66022;50.448;18.122;2023-04-07T12:39:43;99158.42;;;5.09;90.76
62703;BME280;66022;50.448;18.122;2023-04-07T12:43:57;99158.65;;;5.10;90.74
62703;BME280;66022;50.448;18.122;2023-04-07T12:48:11;99157.42;;;5.09;92.23
62703;BME280;66022;50.448;18.122;2023-04-07T12:52:25;99155.67;;;5.11;91.30
62703;BME280;66022;50.448;18.122;2023-04-07T12:56:39;99153.66;;;5.10;96.37
62703;BME280;66022;50.448;18.122;2023-04-07T13:00:53;99152.25;;;5.13;92.60
62703;BME280;66022;50.448;18.122;2023-04-07T13:05:07;99149.66;;;5.15;90.93
62703;BME280;66022;50.448;18.122;2023-04-07T13:09:21;99148.07;;;5.16;91.44
62703;BME280;66022;50.448;18.122;2023-04-07T13:13:35;99146.39;;;5.18;91.26
62703;BME280;66022;50.448;18.122;2023-04-07T13:17:49;99145.23;;;5.18;92.59
62703;BME280;66022;50.448;18.122;2023-04-07T13:22:03;99143.25;;;5.18;91.16
62703;BME280;66022;50.448;18.122;2023-04-07T13:26:17;99143.25;;;5.15;95.90
62703;BME280;66022;50.448;18.122;2023-04-07T13:30:31;99143.48;;;5.16;92.28
62703;BME280;66022;50.448;18.122;2023-04-07T13:34:45;99144.50;;;5.16;91.75
62703;BME280;66022;50.448;18.122;2023-04-07T13:38:59;99145.15;;;5.16;92.63
62703;BME280;66022;50.448;18.122;2023-04-07T13:43:13;99145.15;;;5.16;92.19
62703;BME280;66022;50.448;18.122;2023-04-07T13:47:27;99145.33;;;5.15;95.13
62703;BME280;66022;50.448;18.122;2023-04-07T13:51:41;99142.92;;;5.16;92.34
62703;BME280;66022;50.448;18.122;2023-04-07T13:55:55;99139.92;;;5.15;95.45
62703;BME280;66022;50.448;18.122;2023-04-07T14:00:10;99138.67;;;5.17;92.43
62703;BME280;66022;50.448;18.122;2023-04-07T14:04:23;99138.72;;;5.20;91.69
62703;BME280;66022;50.448;18.122;2023-04-07T14:08:38;99139.88;;;5.22;92.08
62703;BME280;66022;50.448;18.122;2023-04-07T14:12:51;99140.79;;;5.27;91.25
62703;BME280;66022;50.448;18.122;2023-04-07T14:17:05;99141.71;;;5.30;94.81
62703;BME280;66022;50.448;18.122;2023-04-07T14:21:19;99141.27;;;5.34;91.88
62703;BME280;66022;50.448;18.122;2023-04-07T14:25:33;99142.94;;;5.36;92.02
62703;BME280;66022;50.448;18.122;2023-04-07T14:29:47;99144.51;;;5.36;92.41
62703;BME280;66022;50.448;18.122;2023-04-07T14:34:01;99147.01;;;5.36;92.18
62703;BME280;66022;50.448;18.122;2023-04-07T14:38:15;99148.61;;;5.32;94.04
62703;BME280;66022;50.448;18.122;2023-04-07T14:42:29;99151.29;;;5.31;92.86
62703;BME280;66022;50.448;18.122;2023-04-07T14:46:43;99153.53;;;5.27;97.35
62703;BME280;66022;50.448;18.122;2023-04-07T14:50:57;99155.64;;;5.26;93.51
62703;BME280;66022;50.448;18.122;2023-04-07T14:55:11;99155.79;;;5.23;92.67
62703;BME280;66022;50.448;18.122;2023-04-07T14:59:26;99156.06;;;5.21;93.58
62703;BME280;66022;50.448;18.122;2023-04-07T15:03:39;99156.41;;;5.18;93.16
62703;BME280;66022;50.448;18.122;2023-04-07T15:07:53;99156.50;;;5.15;95.42
62703;BME280;66022;50.448;18.122;2023-04-07T15:12:07;99158.40;;;5.13;93.77
62703;BME280;66022;50.448;18.122;2023-04-07T15:16:21;99161.41;;;5.08;99.23
62703;BME280;66022;50.448;18.122;2023-04-07T15:20:35;99164.31;;;5.06;94.05
62703;BME280;66022;50.448;18.122;2023-04-07T15:24:49;99166.33;;;5.04;94.33
62703;BME280;66022;50.448;18.122;2023-04-07T15:29:03;99167.68;;;5.01;94.50
62703;BME280;66022;50.448;18.122;2023-04-07T15:33:17;99169.67;;;5.00;94.07
62703;BME280;66022;50.448;18.122;2023-04-07T15:37:31;99171.26;;;4.98;96.68
62703;BME280;66022;50.448;18.122;2023-04-07T15:41:45;99172.60;;;4.98;94.46
62703;BME280;66022;50.448;18.122;2023-04-07T15:45:59;99173.08;;;4.95;97.99
62703;BME280;66022;50.448;18.122;2023-04-07T15:50:13;99172.16;;;4.95;94.96
62703;BME280;66022;50.448;18.122;2023-04-07T15:54:27;99171.15;;;4.95;94.51
62703;BME280;66022;50.448;18.122;2023-04-07T15:58:41;99167.52;;;4.94;95.82
62703;BME280;66022;50.448;18.122;2023-04-07T16:02:55;99166.19;;;4.94;94.41
62703;BME280;66022;50.448;18.122;2023-04-07T16:07:09;99164.50;;;4.93;98.62
62703;BME280;66022;50.448;18.122;2023-04-07T16:11:24;99163.61;;;4.94;95.13
62703;BME280;66022;50.448;18.122;2023-04-07T16:15:37;99161.67;;;4.93;94.69
62703;BME280;66022;50.448;18.122;2023-04-07T16:19:51;99160.10;;;4.93;95.41
62703;BME280;66022;50.448;18.122;2023-04-07T16:24:05;99160.10;;;4.93;95.14
62703;BME280;66022;50.448;18.122;2023-04-07T16:28:19;99160.71;;;4.90;96.83
62703;BME280;66022;50.448;18.122;2023-04-07T16:32:33;99161.36;;;4.91;95.21
62703;BME280;66022;50.448;18.122;2023-04-07T16:36:47;99162.85;;;4.89;99.67
62703;BME280;66022;50.448;18.122;2023-04-07T16:41:01;99164.59;;;4.90;95.26
62703;BME280;66022;50.448;18.122;2023-04-07T16:45:15;99167.00;;;4.90;95.05
62703;BME280;66022;50.448;18.122;2023-04-07T16:49:29;99169.59;;;4.89;96.04
62703;BME280;66022;50.448;18.122;2023-04-07T16:53:43;99171.67;;;4.89;95.24
62703;BME280;66022;50.448;18.122;2023-04-07T16:57:57;99175.59;;;4.87;97.76
62703;BME280;66022;50.448;18.122;2023-04-07T17:02:11;99178.92;;;4.87;95.66
62703;BME280;66022;50.448;18.122;2023-04-07T17:06:25;99182.25;;;4.83;100.00
62703;BME280;66022;50.448;18.122;2023-04-07T17:10:39;99186.50;;;4.83;95.85
62703;BME280;66022;50.448;18.122;2023-04-07T17:14:53;99190.41;;;4.83;95.61
62703;BME280;66022;50.448;18.122;2023-04-07T17:19:07;99193.39;;;4.82;96.80
62703;BME280;66022;50.448;18.122;2023-04-07T17:23:21;99196.39;;;4.82;95.83
62703;BME280;66022;50.448;18.122;2023-04-07T17:27:35;99200.15;;;4.81;98.27
62703;BME280;66022;50.448;18.122;2023-04-07T17:31:49;99204.38;;;4.82;95.93
62703;BME280;66022;50.448;18.122;2023-04-07T17:36:03;99207.79;;;4.80;99.92
62703;BME280;66022;50.448;18.122;2023-04-07T17:40:17;99212.06;;;4.81;96.32
62703;BME280;66022;50.448;18.122;2023-04-07T17:44:31;99216.39;;;4.81;96.02
62703;BME280;66022;50.448;18.122;2023-04-07T17:48:45;99219.62;;;4.80;97.42
62703;BME280;66022;50.448;18.122;2023-04-07T17:52:59;99222.97;;;4.81;96.03
62703;BME280;66022;50.448;18.122;2023-04-07T17:57:13;99225.69;;;4.80;99.90
62703;BME280;66022;50.448;18.122;2023-04-07T18:01:27;99228.45;;;4.81;96.25
62703;BME280;66022;50.448;18.122;2023-04-07T18:05:44;99231.79;;;4.81;95.52
62703;BME280;66022;50.448;18.122;2023-04-07T18:09:55;99234.29;;;4.81;96.54
62703;BME280;66022;50.448;18.122;2023-04-07T18:14:09;99238.28;;;4.81;96.04
62703;BME280;66022;50.448;18.122;2023-04-07T18:18:23;99241.19;;;4.79;97.41
62703;BME280;66022;50.448;18.122;2023-04-07T18:22:37;99243.92;;;4.80;96.13
62703;BME280;66022;50.448;18.122;2023-04-07T18:26:51;99247.42;;;4.80;100.00
62703;BME280;66022;50.448;18.122;2023-04-07T18:31:05;99250.68;;;4.81;96.28
62703;BME280;66022;50.448;18.122;2023-04-07T18:35:19;99253.42;;;4.81;96.06
62703;BME280;66022;50.448;18.122;2023-04-07T18:39:33;99256.59;;;4.81;96.98
62703;BME280;66022;50.448;18.122;2023-04-07T18:43:47;99258.98;;;4.82;96.37
62703;BME280;66022;50.448;18.122;2023-04-07T18:48:02;99261.33;;;4.81;98.10
62703;BME280;66022;50.448;18.122;2023-04-07T18:52:15;99263.43;;;4.82;96.14
62703;BME280;66022;50.448;18.122;2023-04-07T18:56:31;99264.67;;;4.81;100.00
62703;BME280;66022;50.448;18.122;2023-04-07T19:00:44;99266.74;;;4.84;96.12
62703;BME280;66022;50.448;18.122;2023-04-07T19:04:57;99268.99;;;4.87;95.71
62703;BME280;66022;50.448;18.122;2023-04-07T19:09:14;99269.83;;;4.91;96.48
62703;BME280;66022;50.448;18.122;2023-04-07T19:13:25;99272.16;;;4.96;95.00
62703;BME280;66022;50.448;18.122;2023-04-07T19:17:39;99274.84;;;5.00;97.30
62703;BME280;66022;50.448;18.122;2023-04-07T19:21:53;99277.92;;;5.03;95.27
62703;BME280;66022;50.448;18.122;2023-04-07T19:26:10;99280.90;;;5.03;99.55
62703;BME280;66022;50.448;18.122;2023-04-07T19:30:21;99282.48;;;5.05;95.66
62703;BME280;66022;50.448;18.122;2023-04-07T19:34:37;99283.91;;;5.05;95.68
62703;BME280;66022;50.448;18.122;2023-04-07T19:38:49;99283.98;;;5.05;96.72
62703;BME280;66022;50.448;18.122;2023-04-07T19:43:03;99283.82;;;5.04;95.76
62703;BME280;66022;50.448;18.122;2023-04-07T19:47:17;99284.90;;;5.02;98.87
62703;BME280;66022;50.448;18.122;2023-04-07T19:51:31;99285.58;;;5.01;96.52
62703;BME280;66022;50.448;18.122;2023-04-07T19:55:45;99285.92;;;4.99;96.22
62703;BME280;66022;50.448;18.122;2023-04-07T19:59:59;99286.00;;;4.98;96.71
62703;BME280;66022;50.448;18.122;2023-04-07T20:04:13;99285.83;;;4.95;96.33
62703;BME280;66022;50.448;18.122;2023-04-07T20:08:27;99285.64;;;4.91;97.46
62703;BME280;66022;50.448;18.122;2023-04-07T20:12:41;99286.08;;;4.90;96.50
62703;BME280;66022;50.448;18.122;2023-04-07T20:16:55;99288.39;;;4.87;100.00
62703;BME280;66022;50.448;18.122;2023-04-07T20:21:09;99289.72;;;4.87;96.62
62703;BME280;66022;50.448;18.122;2023-04-07T20:25:23;99290.37;;;4.85;96.40
62703;BME280;66022;50.448;18.122;2023-04-07T20:29:37;99291.06;;;4.84;97.53
62703;BME280;66022;50.448;18.122;2023-04-07T20:33:51;99290.63;;;4.84;96.77
62703;BME280;66022;50.448;18.122;2023-04-07T20:38:05;99291.89;;;4.81;98.87
62703;BME280;66022;50.448;18.122;2023-04-07T20:42:19;99294.14;;;4.81;96.89
62703;BME280;66022;50.448;18.122;2023-04-07T20:46:33;99295.70;;;4.78;100.00
62703;BME280;66022;50.448;18.122;2023-04-07T20:50:47;99297.44;;;4.78;97.25
62703;BME280;66022;50.448;18.122;2023-04-07T20:55:01;99299.45;;;4.77;96.78
62703;BME280;66022;50.448;18.122;2023-04-07T20:59:15;99301.05;;;4.77;97.83
62703;BME280;66022;50.448;18.122;2023-04-07T21:03:29;99301.93;;;4.76;97.02
62703;BME280;66022;50.448;18.122;2023-04-07T21:07:43;99303.03;;;4.75;99.95
62703;BME280;66022;50.448;18.122;2023-04-07T21:11:57;99302.70;;;4.75;97.21
62703;BME280;66022;50.448;18.122;2023-04-07T21:16:11;99302.34;;;4.72;100.00
62703;BME280;66022;50.448;18.122;2023-04-07T21:20:25;99301.34;;;4.73;97.49
62703;BME280;66022;50.448;18.122;2023-04-07T21:24:39;99299.95;;;4.73;96.92
62703;BME280;66022;50.448;18.122;2023-04-07T21:28:53;99298.26;;;4.73;98.35
62703;BME280;66022;50.448;18.122;2023-04-07T21:33:07;99298.19;;;4.74;97.25
62703;BME280;66022;50.448;18.122;2023-04-07T21:37:21;99298.26;;;4.73;100.00
62703;BME280;66022;50.448;18.122;2023-04-07T21:41:35;99298.71;;;4.73;97.69
62703;BME280;66022;50.448;18.122;2023-04-07T21:45:49;99298.92;;;4.71;99.34
62703;BME280;66022;50.448;18.122;2023-04-07T21:50:03;99298.52;;;4.70;98.06
62703;BME280;66022;50.448;18.122;2023-04-07T21:54:17;99299.77;;;4.70;97.52
62703;BME280;66022;50.448;18.122;2023-04-07T21:58:32;99300.36;;;4.67;99.27
62703;BME280;66022;50.448;18.122;2023-04-07T22:02:46;99301.26;;;4.68;98.03
62703;BME280;66022;50.448;18.122;2023-04-07T22:07:00;99300.59;;;4.66;100.00
62703;BME280;66022;50.448;18.122;2023-04-07T22:11:14;99300.59;;;4.67;98.13
62703;BME280;66022;50.448;18.122;2023-04-07T22:15:28;99301.67;;;4.66;97.82
62703;BME280;66022;50.448;18.122;2023-04-07T22:19:42;99301.74;;;4.65;99.33
62703;BME280;66022;50.448;18.122;2023-04-07T22:23:56;99301.98;;;4.63;98.86
62703;BME280;66022;50.448;18.122;2023-04-07T22:28:10;99301.23;;;4.61;100.00
62703;BME280;66022;50.448;18.122;2023-04-07T22:32:24;99300.83;;;4.61;98.39
62703;BME280;66022;50.448;18.122;2023-04-07T22:36:38;99300.31;;;4.59;100.00
62703;BME280;66022;50.448;18.122;2023-04-07T22:40:52;99301.34;;;4.60;99.79
62703;BME280;66022;50.448;18.122;2023-04-07T22:45:06;99302.89;;;4.57;99.77
62703;BME280;66022;50.448;18.122;2023-04-07T22:49:20;99304.21;;;4.54;100.00
62703;BME280;66022;50.448;18.122;2023-04-07T22:53:34;99306.37;;;4.51;100.00
62703;BME280;66022;50.448;18.122;2023-04-07T22:57:48;99309.52;;;4.48;100.00
62703;BME280;66022;50.448;18.122;2023-04-07T23:02:02;99312.95;;;4.45;100.00
62703;BME280;66022;50.448;18.122;2023-04-07T23:06:16;99315.59;;;4.39;100.00
62703;BME280;66022;50.448;18.122;2023-04-07T23:10:30;99317.99;;;4.37;100.00
62703;BME280;66022;50.448;18.122;2023-04-07T23:14:44;99319.65;;;4.35;100.00
62703;BME280;66022;50.448;18.122;2023-04-07T23:18:58;99321.28;;;4.33;100.00
62703;BME280;66022;50.448;18.122;2023-04-07T23:23:12;99322.46;;;4.32;100.00
62703;BME280;66022;50.448;18.122;2023-04-07T23:27:26;99322.85;;;4.29;100.00